Share

Castellon, Spain

ICOMUNID116 Elev 154 ft | 39.94 °N, 0.10 °W | Change Station

Current weather conditions updated 3 minutes ago

Clear
Clear
63.3 °F
Feels Like 63.3 °F
N
9.0
Wind Variable Wind from NNW
Gusts 9.0 mph
Sunrise 7:16 AM
Sunset 8:42 PM
Moon Waning Gibbous

Today is forecast to be nearly the same temperature as yesterday.

Pressure 29.80 in
Visibility -9999.0 miles
Clouds
Dew Point 43 °F
Humidity 47%
Rainfall 0.00 in
Snow Depth Not available.
UV Not available.
Pollen Not available.
Air Quality Not available.
Flu Activity Not available.
METAR LEVC 182300Z 33003KT CAVOK 17/10 Q1009 NOSIG

More Conditions Fewer Conditions

Pressure 29.80 in
Visibility -9999.0 miles
Clouds
Dew Point 43 °F
Humidity 47%
Rainfall 0.00 in
Snow Depth Not available.
UV Not available.
Pollen Not available.
Air Quality Not available.
Flu Activity Not available.
METAR LEVC 182300Z 33003KT CAVOK 17/10 Q1009 NOSIG

More Conditions Fewer Conditions

10-Day Weather Forecast

Almanac

Astronomy

Apr. 19, 2014 Rise Set
Actual Time 7:16 AM CEST 8:42 PM CEST
Civil Twilight 6:48 AM CEST 9:10 PM CEST
Nautical Twilight 6:14 AM CEST 9:44 PM CEST
Astronomical Twilight 5:38 AM CEST 10:21 PM CEST
Moon 12:12 AM CEST (4/19) 10:20 AM CEST (4/19)
Length Of Visible Light 14h 22m
Length of Day
13h 25m
Tomorrow will be 2m 28s longer.
Waning Gibbous, 85% of the Moon is Illuminated
Apr 18
Waning Gibbous
Apr 22
Last Quarter
Apr 29
New
May 6
First Quarter
May 14
Full

Yesterday's Extremes

Country Highs Country Lows

Community

  • Spring Chickadee
    Spring Chickadee
  • What's for Lunch?
    What's for Lunch?
  • SUNRISE THROUGH THE TREES.
    SUNRISE THROUGH THE TREES.
  • Dog Wood Blossoms
    Dog Wood Blossoms
  • Morning Light
    Morning Light

WunderPhotos

Upload Photos

1,702,535 photos uploaded!

WunderBlogs® & News

Nearby

Snow Depth

Not available.

Coastal Water Temperatures

Place Temperature
No Stations Reporting

Earthquake Activity

City Distance Mag. Time & Date
No recent earthquake activity has been reported nearby.
Minimum magnitude displayed is 2.5.

Nearby Weather Stations

Station Location Temp. Dew Point Humidity Wind Precip. Elev Updated Type
Vila-real 63.3 °F 43 °F 47% NNW  at  9.0 mph 0.00 in / hr 154 ft 1:12 AM CEST Normal
La Vall d Uixo, La Vall dUixo 63.0 °F 39 °F 41% SW  at  0.0 mph 0.00 in / hr 427 ft 1:10 AM CEST Normal

Show More Stations Show Fewer Stations

What do you think?

We're not finished. Please let us know what you like, what you don't like, and what you are still missing.